Ora Direzione Vento Velocita' Vento Media Vento Raffica Max. Temperatura Wind Chill Pioggia Pressione
06:17:48.0335 °(NNW)22.62 Kts21.45 Kts32.11 Kts13.6 °C10.81 °C0.0 mm1012.8 Hpa
05:57:46.0308 °(NW)28.21 Kts25.78 Kts32.11 Kts13.6 °C10.39 °C0.0 mm1013.3 Hpa
05:37:48.0321 °(NW)21.97 Kts22.01 Kts32.11 Kts13.6 °C10.81 °C0.0 mm1014.1 Hpa
05:16:45.0324 °(NW)16.9 Kts23.01 Kts31.85 Kts13.6 °C11.23 °C0.0 mm1011.5 Hpa
04:56:47.0323 °(NW)21.19 Kts21.71 Kts31.85 Kts13.5 °C10.8 °C0.0 mm1011.5 Hpa
04:36:48.0317 °(NW)21.58 Kts19.71 Kts31.85 Kts13.6 °C10.94 °C0.0 mm1012.8 Hpa
04:17:46.0310 °(NW)20.67 Kts19.06 Kts31.85 Kts13.8 °C11.2 °C0.0 mm1013.8 Hpa
03:56:44.0329 °(NNW)24.05 Kts24.78 Kts31.85 Kts13.8 °C10.96 °C0.0 mm1011.7 Hpa
03:37:45.0321 °(NW)25.48 Kts21.49 Kts31.85 Kts14.0 °C11.11 °C0.0 mm1011.2 Hpa
03:17:41.0318 °(NW)24.96 Kts23.14 Kts31.85 Kts13.8 °C10.84 °C0.0 mm1011.7 Hpa
02:57:43.0319 °(NW)22.36 Kts22.92 Kts31.85 Kts13.8 °C11.08 °C0.0 mm1011.2 Hpa
02:37:37.0328 °(NNW)25.48 Kts24.48 Kts29.38 Kts13.6 °C10.57 °C0.0 mm1012.5 Hpa
02:17:39.0328 °(NNW)16.9 Kts20.41 Kts29.38 Kts13.6 °C11.23 °C0.0 mm1013.8 Hpa
01:57:33.0330 °(NNW)20.67 Kts21.75 Kts29.38 Kts13.6 °C10.94 °C0.0 mm1015.0 Hpa
01:37:31.0318 °(NW)15.99 Kts18.46 Kts29.38 Kts13.6 °C11.35 °C0.0 mm1012.0 Hpa
01:17:30.0330 °(NNW)23.92 Kts26.91 Kts29.38 Kts13.6 °C10.69 °C0.0 mm1010.7 Hpa
00:57:23.0330 °(NNW)18.98 Kts23.53 Kts29.38 Kts13.6 °C11.11 °C0.0 mm1011.5 Hpa
00:37:21.0333 °(NNW)18.07 Kts17.11 Kts27.95 Kts13.6 °C11.11 °C0.0 mm1012.0 Hpa
00:17:28.0322 °(NW)20.54 Kts18.8 Kts27.04 Kts13.3 °C10.54 °C0.0 mm1011.5 Hpa
23:57:33.0319 °(NW)16.9 Kts16.25 Kts28.86 Kts12.8 °C10.18 °C0.0 mm1010.8 Hpa